Flight Track Log - Related Links

Times and Time Zones

All times are in EDT time to prevent confusion due to time zone crossing. See the N53NW flight status page for this flight to view local times or setup timezone preferences in your user account.

Time Position Orientation Groundspeed Altitude Reporting Facility
EDT Latitude Longitude Course Direction KTS MPH feet Rate Location/Type
Mon 02:00:16 PM 47.5117 -122.2878 148° Southeast 205 236 1,000  Level Seattle Center
Mon 02:00:46 PM 47.4828 -122.2611 148° Southeast 220 253 1,800 1,451 Climbing Seattle Center
Mon 02:01:47 PM 47.4308 -122.2144 149° Southeast 229 264 3,200 1,552 Climbing Seattle Center
Mon 02:02:42 PM 47.3722 -122.1944 167° South 246 283 4,800 2,133 Climbing Seattle Center
Mon 02:03:17 PM 47.3372 -122.1908 176° South 234 269 6,400 3,049 Climbing Seattle Center
Mon 02:03:43 PM 47.3044 -122.1894 178° South 240 276 7,900 3,246 Climbing Seattle Center
Mon 02:04:18 PM 47.2625 -122.1847 176° South 248 285 9,700 3,000 Climbing Seattle Center
Mon 02:05:19 PM 47.1903 -122.1764 176° South 259 298 12,700 2,951 Climbing Seattle Center
Mon 02:06:20 PM 47.1169 -122.1678 175° South 264 304 15,700 2,459 Climbing Seattle Center
Mon 02:07:21 PM 47.0433 -122.1336 162° South 288 331 17,700 1,770 Climbing Seattle Center
Mon 02:08:22 PM 46.9614 -122.0883 159° South 316 364 19,300 1,770 Climbing Seattle Center
Mon 02:09:23 PM 46.8711 -122.0383 159° South 342 394 21,300 1,967 Climbing Seattle Center
Mon 02:10:24 PM 46.7783 -121.9875 159° South 354 407 23,300 1,967 Climbing Seattle Center
Mon 02:11:25 PM 46.6853 -121.9336 158° South 362 417 25,300 1,967 Climbing Seattle Center
Mon 02:12:26 PM 46.5894 -121.8814 159° South 367 422 27,300 1,967 Climbing Seattle Center
Mon 02:13:27 PM 46.4939 -121.8281 159° South 370 426 29,300 1,967 Climbing Seattle Center
Mon 02:14:28 PM 46.4006 -121.7753 159° South 362 417 31,300 1,918 Climbing Seattle Center
Mon 02:15:29 PM 46.2861 -121.7122 159° South 367 422 33,200 1,525 Climbing Seattle Center
Mon 02:16:30 PM 46.1994 -121.6647 159° South 374 430 34,400 1,279 Climbing Seattle Center
Mon 02:17:31 PM 46.1019 -121.6103 159° South 378 435 35,800 1,377 Climbing Seattle Center
Mon 02:18:32 PM 46.0050 -121.5586 160° South 374 430 37,200 1,328 Climbing Seattle Center
Mon 02:19:33 PM 45.9094 -121.5053 159° South 370 426 38,500 1,131 Climbing Seattle Center
Mon 02:20:34 PM 45.8136 -121.4533 159° South 370 426 39,500 1,082 Climbing Seattle Center
Mon 02:21:35 PM 45.6975 -121.3911 159° South 372 428 40,700 738 Climbing Seattle Center
Mon 02:22:36 PM 45.5992 -121.3392 160° South 376 433 41,000 148 Climbing Seattle Center
Mon 02:23:37 PM 45.4950 -121.2839 160° South 390 449 41,000  Level Seattle Center
Mon 02:24:38 PM 45.3883 -121.2278 160° South 403 464 41,000  Level Seattle Center
Mon 02:25:39 PM 45.2833 -121.1706 159° South 407 468 41,000  Level Seattle Center
Mon 02:26:40 PM 45.1783 -121.1153 160° South 406 467 41,000  Level Seattle Center
Mon 02:27:41 PM 45.0708 -121.0589 160° South 411 473 41,000  Level Seattle Center
Mon 02:28:42 PM 44.9650 -121.0036 160° South 408 470 41,000  Level Seattle Center
Mon 02:29:43 PM 44.8583 -120.9472 159° South 411 473 41,000  Level Seattle Center
Mon 02:30:44 PM 44.7297 -120.8806 160° South 414 476 41,000  Level Seattle Center
Mon 02:31:45 PM 44.6228 -120.8256 160° South 413 475 41,000  Level Seattle Center
Mon 02:32:46 PM 44.5272 -120.7767 160° South 412 474 41,000  Level Seattle Center
Mon 02:33:47 PM 44.4183 -120.7200 160° South 413 475 41,000  Level Seattle Center
Mon 02:34:49 PM 44.3008 -120.6600 160° South 415 478 41,000  Level Seattle Center
Mon 02:35:50 PM 44.1933 -120.6058 160° South 413 475 41,000  Level Seattle Center
Mon 02:36:51 PM 44.0867 -120.5522 160° South 410 472 41,000  Level Seattle Center
Mon 02:37:52 PM 43.9797 -120.4981 160° South 411 473 41,000  Level Seattle Center
Mon 02:38:53 PM 43.8731 -120.4447 160° South 411 473 41,000  Level Seattle Center
Mon 02:39:54 PM 43.7664 -120.3903 160° South 410 472 41,000  Level Seattle Center
Mon 02:40:55 PM 43.6378 -120.3272 160° South 411 473 41,000  Level Seattle Center
Mon 02:41:56 PM 43.5397 -120.2797 161° South 410 472 41,000  Level Seattle Center
Mon 02:42:57 PM 43.4331 -120.2264 160° South 408 470 41,000  Level Seattle Center
Mon 02:43:58 PM 43.3256 -120.1744 161° South 409 471 41,000  Level Seattle Center
Mon 02:44:59 PM 43.2189 -120.1214 160° South 409 471 41,000  Level Seattle Center
Mon 02:46:00 PM 43.1111 -120.0697 161° South 409 471 41,000  Level Seattle Center
Mon 02:47:01 PM 43.0039 -120.0181 161° South 408 470 41,000  Level Seattle Center
Mon 02:48:02 PM 42.8761 -119.9547 160° South 408 470 41,000  Level Seattle Center
Mon 02:49:03 PM 42.7681 -119.9031 161° South 410 472 41,000  Level Seattle Center
Mon 02:50:04 PM 42.6614 -119.8531 161° South 408 470 41,000  Level Seattle Center
Mon 02:51:05 PM 42.5531 -119.8000 160° South 412 474 41,000  Level Seattle Center
Mon 02:52:06 PM 42.4456 -119.7483 160° South 410 472 41,000  Level Seattle Center
Mon 02:53:07 PM 42.3361 -119.6967 161° South 414 476 41,000  Level Seattle Center
Mon 02:54:08 PM 42.2264 -119.6439 160° South 419 482 41,000  Level Seattle Center
Mon 02:55:09 PM 42.1164 -119.5931 161° South 418 481 41,000  Level Seattle Center
Mon 02:56:10 PM 42.0069 -119.5417 161° South 416 479 41,000  Level Seattle Center
Mon 02:57:11 PM 41.9008 -119.4911 160° South 407 468 41,000  Level Seattle Center
Mon 02:58:12 PM 41.7925 -119.4400 161° South 411 473 41,000  Level Seattle Center
Mon 02:59:13 PM 41.6856 -119.3906 161° South 408 470 41,000  Level Seattle Center
Mon 02:59:54 PM 41.6078 -119.3544 161° South 413 475 41,000  Level Salt Lake Center
Mon 03:00:56 PM 41.4881 -119.2994 161° South 410 472 41,000  Level Salt Lake Center
Mon 03:01:58 PM 41.3856 -119.2514 161° South 408 470 41,000  Level Salt Lake Center
Mon 03:02:59 PM 41.2664 -119.1961 161° South 407 468 41,000  Level Salt Lake Center
Mon 03:04:01 PM 41.1650 -119.1483 160° South 404 465 41,000  Level Salt Lake Center
Mon 03:05:08 PM 41.0478 -119.0947 161° South 405 466 41,000  Level Oakland Center
Mon 03:06:05 PM 40.9425 -119.0483 162° South 406 467 41,000  Level Salt Lake Center
Mon 03:07:07 PM 40.8217 -118.9944 161° South 409 471 41,000  Level Salt Lake Center
Mon 03:08:12 PM 40.7125 -118.9422 160° South 408 470 41,000  Level Oakland Center
Mon 03:09:14 PM 40.6061 -118.8950 161° South 404 465 41,000  Level Oakland Center
Mon 03:10:15 PM 40.5000 -118.8478 161° South 403 464 41,000  Level Oakland Center
Mon 03:11:17 PM 40.3936 -118.8011 162° South 402 463 41,000  Level Oakland Center
Mon 03:12:18 PM 40.2881 -118.7536 161° South 402 463 41,000  Level Oakland Center
Mon 03:13:19 PM 40.1811 -118.7053 161° South 404 465 41,000  Level Oakland Center
Mon 03:14:20 PM 40.0742 -118.6583 161° South 403 464 41,000  Level Salt Lake Center
Mon 03:15:22 PM 39.9472 -118.6022 161° South 400 460 41,000  Level Salt Lake Center
Mon 03:16:24 PM 39.8411 -118.5550 161° South 402 463 41,000  Level Oakland Center
Mon 03:17:25 PM 39.7344 -118.5086 162° South 402 463 41,000  Level Oakland Center
Mon 03:18:27 PM 39.6278 -118.4600 161° South 403 464 41,000  Level Oakland Center
Mon 03:19:28 PM 39.5194 -118.4133 162° South 403 464 41,000  Level Oakland Center
Mon 03:20:30 PM 39.4106 -118.3661 161° South 406 467 41,000  Level Oakland Center
Mon 03:21:31 PM 39.3031 -118.3214 162° South 404 465 41,000  Level Oakland Center
Mon 03:22:33 PM 39.1956 -118.2742 161° South 404 465 41,000  Level Oakland Center
Mon 03:23:34 PM 39.0889 -118.2264 161° South 404 465 41,000  Level Oakland Center
Mon 03:24:36 PM 38.9872 -118.1656 155° Southeast 402 463 41,000  Level Oakland Center
Mon 03:25:37 PM 38.8847 -118.1078 156° South 401 461 41,000  Level Oakland Center
Mon 03:26:39 PM 38.7825 -118.0483 156° South 402 463 41,000  Level Oakland Center
Mon 03:27:40 PM 38.6603 -117.9778 156° South 401 461 41,000 -439 Level Oakland Center
Mon 03:28:42 PM 38.5564 -117.9167 155° Southeast 401 461 40,100 -927 Descending Oakland Center
Mon 03:29:43 PM 38.4550 -117.8583 156° South 399 459 39,100 -976 Descending Oakland Center
Mon 03:30:45 PM 38.3544 -117.8000 156° South 397 457 38,100 -976 Descending Oakland Center
Mon 03:31:46 PM 38.2544 -117.7433 156° South 396 456 37,100 -976 Descending Oakland Center
Mon 03:32:48 PM 38.1522 -117.6861 156° South 403 464 36,100 -976 Descending Oakland Center
Mon 03:33:49 PM 38.0503 -117.6269 155° Southeast 406 467 35,100 -537 Descending Oakland Center
Mon 03:34:51 PM 37.9294 -117.5583 156° South 403 464 35,000 -537 Descending Oakland Center
Mon 03:35:52 PM 37.8283 -117.5017 156° South 401 461 34,000 -927 Descending Oakland Center
Mon 03:36:54 PM 37.7256 -117.4433 156° South 404 465 33,100 -488 Descending Oakland Center
Mon 03:37:55 PM 37.6233 -117.3867 156° South 404 465 33,000 -54 Descending Oakland Center
Mon 03:38:46 PM 37.5422 -117.3414 156° South 402 463 33,000  Level Los Angeles Center
Mon 03:39:48 PM 37.4411 -117.2853 156° South 399 459 33,000  Level Los Angeles Center
Mon 03:41:00 PM 37.3289 -117.1936 147° Southeast 400 460 33,000  Level Oakland Center
Mon 03:41:52 PM 37.2375 -117.1139 145° Southeast 401 461 33,000 -53 Level Los Angeles Center
Mon 03:42:54 PM 37.1450 -117.0356 146° Southeast 401 461 32,900 -528 Descending Los Angeles Center
Mon 03:43:57 PM 37.0525 -116.9578 146° Southeast 400 460 31,900 -876 Descending Los Angeles Center
Mon 03:45:11 PM 36.9592 -116.8794 146° Southeast 403 464 30,900 -971 Descending Los Angeles Center
Mon 03:46:13 PM 36.8492 -116.7875 146° Southeast 398 458 29,700 -1,161 Descending Los Angeles Center
Mon 03:47:15 PM 36.7525 -116.6789 138° Southeast 391 450 28,500 -1,113 Descending Los Angeles Center
Mon 03:48:17 PM 36.6822 -116.5767 131° Southeast 389 448 27,400 -1,248 Descending Los Angeles Center
Mon 03:49:20 PM 36.6111 -116.4764 131° Southeast 387 445 25,900 -1,440 Descending Los Angeles Center
Mon 03:50:22 PM 36.5411 -116.3783 132° Southeast 381 438 24,400 -1,324 Descending Los Angeles Center
Mon 03:51:36 PM 36.4753 -116.2844 131° Southeast 381 438 22,900 -1,513 Descending Los Angeles Center
Mon 03:52:17 PM 36.4108 -116.1967 132° Southeast 373 429 21,500 -2,129 Descending Los Angeles Center
Mon 03:52:38 PM 36.3803 -116.1489 128° Southeast 364 419 20,700 -2,000 Descending Los Angeles Center
Mon 03:53:11 PM 36.3439 -116.1033 135° Southeast 357 411 19,700 -1,714 Descending Los Angeles Center
Mon 03:53:41 PM 36.3175 -116.0614 128° Southeast 342 394 18,900 -1,770 Descending Los Angeles Center
Mon 03:54:12 PM 36.2828 -116.0164 134° Southeast 333 383 17,900 -1,839 Descending Los Angeles Center
Mon 03:54:43 PM 36.2525 -115.9722 130° Southeast 326 375 17,000 -1,742 Descending Los Angeles Center
Mon 03:55:14 PM 36.2242 -115.9314 131° Southeast 329 379 16,100 -968 Descending Los Angeles Center
Mon 03:55:45 PM 36.1961 -115.8817 125° Southeast 331 381 16,000 -800 Descending Los Angeles Center
Mon 03:56:14 PM 36.1761 -115.8272 114° Southeast 330 380 15,300 -1,161 Descending Los Angeles Center
Mon 03:56:47 PM 36.1578 -115.7697 112° Southeast 329 379 14,800 -1,000 Descending Los Angeles Center
Mon 03:57:14 PM 36.1433 -115.7233 111° Southeast 325 374 14,300 -968 Descending Los Angeles Center
Mon 03:57:49 PM 36.1250 -115.6678 112° Southeast 322 371 13,800 -885 Descending Los Angeles Center
Mon 03:58:15 PM 36.1111 -115.6222 111° Southeast 317 365 13,400 -968 Descending Los Angeles Center
Mon 03:58:51 PM 36.0911 -115.5603 112° Southeast 313 360 12,800 -982 Descending Los Angeles Center
Mon 03:59:10 PM 36.0814 -115.5333 114° Southeast 303 349 12,500 -871 Descending Los Angeles Center
Mon 03:59:53 PM 36.0614 -115.4683 111° Southeast 290 334 11,900 -885 Descending Los Angeles Center
Mon 04:00:11 PM 36.0531 -115.4417 111° Southeast 281 323 11,600 -871 Descending Los Angeles Center
Mon 04:00:55 PM 36.0317 -115.3722 111° Southeast 282 325 11,000 -984 Descending Los Angeles Center
Mon 04:01:12 PM 36.0283 -115.3461 99° East 288 331 10,600 -1,048 Descending Los Angeles Center
Mon 04:01:58 PM 36.0242 -115.2786 94° East 275 316 9,900 -984 Descending Los Angeles Center
Mon 04:02:13 PM 36.0231 -115.2522 93° East 268 308 9,600 -730 Descending Los Angeles Center
Mon 04:03:12 PM 36.0183 -115.1983 96° East 256 295 9,000 -885 Descending Los Angeles Center
Mon 04:03:14 PM 36.0164 -115.1719 95° East 232 267 8,700 -774 Descending Los Angeles Center
Mon 04:04:14 PM 36.0117 -115.1036 95° East 236 272 8,200 -365 Descending Los Angeles Center
Mon 04:05:09 PM 36.0236 -115.0367 78° East 204 235 8,000 -194 Descending Los Angeles Center
Mon 04:05:16 PM 36.0306 -115.0303 37° Northeast 220 253 8,000 -1,075 Level Los Angeles Center
Mon 04:06:16 PM 36.0811 -115.0122 16° North 184 212 6,800 -1,065 Descending Los Angeles Center
Mon 04:06:18 PM 36.0794 -115.0092 124° Southeast 194 223 6,900 -1,082 Climbing Los Angeles Center
Mon 04:07:17 PM 36.1278 -115.0286 342° North 174 200 5,700 -1,048 Descending Los Angeles Center
Mon 04:07:21 PM 36.1278 -115.0228 90° East 187 215 5,800 -764 Climbing Los Angeles Center
Mon 04:08:12 PM 36.1286 -115.0817 271° West 156 180 5,000 -774 Descending Los Angeles Center
Mon 04:08:23 PM 36.1297 -115.0831 315° West 172 198 5,000 -1,672 Level Los Angeles Center
Mon 04:09:13 PM 36.1283 -115.1297 268° West 135 155 3,300 -1,645 Descending Los Angeles Center
Mon 04:09:25 PM 36.1289 -115.1297 360° North 148 170 3,300 -984 Level Los Angeles Center
Mon 04:10:14 PM 36.0992 -115.1553 215° Southwest 119 137 2,300 -871 Descending Los Angeles Center
Mon 04:10:27 PM 36.0994 -115.1556 321° Northwest 135 155 2,400 462 Climbing Los Angeles Center
Mon 04:12:00 PM 36.0801 -115.1523 270° West  Level Estimated

Login

Don't have an account? Register now (free) for customized features, flight alerts, and more!